createdAt,value
2022-10-04T00:00:50.388Z,1.27
2022-10-04T00:05:58.571Z,1.33
2022-10-04T00:11:07.379Z,1.43
2022-10-04T00:16:21.258Z,1.50
2022-10-04T00:21:24.727Z,1.60
2022-10-04T00:27:09.508Z,1.73
2022-10-04T00:32:27.042Z,2.20
2022-10-04T00:37:56.049Z,2.87
2022-10-04T00:43:00.436Z,1.10
2022-10-04T00:48:18.320Z,1.40
2022-10-04T00:53:40.494Z,2.27
2022-10-04T00:59:03.141Z,1.43
2022-10-04T01:04:14.140Z,1.60
2022-10-04T01:09:18.241Z,1.50
2022-10-04T01:14:29.337Z,1.67
2022-10-04T01:19:32.399Z,1.80
2022-10-04T01:24:37.007Z,2.00
2022-10-04T01:29:38.998Z,1.40
2022-10-04T01:34:41.245Z,1.90
2022-10-04T01:39:45.615Z,1.33
2022-10-04T01:44:53.196Z,1.50
2022-10-04T01:49:57.873Z,1.80
2022-10-04T01:55:05.478Z,1.83
2022-10-04T02:00:09.698Z,1.50
2022-10-04T02:05:14.081Z,2.13
2022-10-04T02:10:21.515Z,2.10
2022-10-04T02:15:26.022Z,1.67
2022-10-04T02:20:28.060Z,1.80
2022-10-04T02:25:31.742Z,1.43
2022-10-04T02:30:36.602Z,1.80
2022-10-04T02:35:45.569Z,1.70
2022-10-04T02:40:56.585Z,1.20
2022-10-04T02:46:06.039Z,1.90
2022-10-04T02:51:21.870Z,1.50
2022-10-04T02:56:25.688Z,1.60
2022-10-04T03:01:36.936Z,1.50
2022-10-04T03:06:39.372Z,1.73
2022-10-04T03:11:43.598Z,1.33
2022-10-04T03:16:47.811Z,1.43
2022-10-04T03:21:52.374Z,1.70
2022-10-04T03:26:57.646Z,1.47
2022-10-04T03:32:03.184Z,1.20
2022-10-04T03:37:09.977Z,1.47
2022-10-04T03:42:15.989Z,2.03
2022-10-04T03:47:22.274Z,1.70
2022-10-04T03:52:27.347Z,2.03
2022-10-04T03:57:31.569Z,1.80
2022-10-04T04:02:45.711Z,1.97
2022-10-04T04:07:58.299Z,2.00
2022-10-04T04:13:06.842Z,1.67
2022-10-04T04:18:19.433Z,2.43
2022-10-04T04:23:25.634Z,2.07
2022-10-04T04:28:34.165Z,1.80
2022-10-04T04:33:44.421Z,2.17
2022-10-04T04:38:46.413Z,1.73
2022-10-04T04:43:50.732Z,1.60
2022-10-04T04:48:58.732Z,1.90
2022-10-04T04:54:04.760Z,3.27
2022-10-04T04:59:08.535Z,3.80
2022-10-04T05:04:18.779Z,2.27
2022-10-04T05:09:25.459Z,2.07
2022-10-04T05:14:29.128Z,1.47
2022-10-04T05:19:34.060Z,1.80
2022-10-04T05:24:39.754Z,2.13
2022-10-04T05:30:02.983Z,2.00
2022-10-04T05:35:16.080Z,2.10
2022-10-04T05:40:32.786Z,2.00
2022-10-04T05:45:36.274Z,2.10
2022-10-04T05:50:40.232Z,1.50
2022-10-04T05:55:54.301Z,2.23
2022-10-04T06:01:13.470Z,1.97
2022-10-04T06:06:22.735Z,2.20
2022-10-04T06:11:37.268Z,2.40
2022-10-04T06:16:59.878Z,2.07
2022-10-04T06:22:17.370Z,2.87
2022-10-04T06:27:27.639Z,1.97
2022-10-04T06:33:03.330Z,2.73
2022-10-04T06:38:41.265Z,2.40
2022-10-04T06:43:59.058Z,2.17
2022-10-04T06:49:16.105Z,2.63
2022-10-04T06:54:31.425Z,2.30
2022-10-04T06:59:58.647Z,3.00
2022-10-04T07:05:14.131Z,2.73
2022-10-04T07:10:27.718Z,2.73
2022-10-04T07:15:34.181Z,2.37
2022-10-04T07:20:37.879Z,2.70
2022-10-04T07:25:45.984Z,2.47
2022-10-04T07:30:53.241Z,2.23
2022-10-04T07:36:07.316Z,2.30
2022-10-04T07:41:13.968Z,2.20
2022-10-04T07:46:24.059Z,1.70
2022-10-04T07:51:36.597Z,1.80
2022-10-04T07:56:47.254Z,1.77
2022-10-04T08:01:56.911Z,2.03
2022-10-04T08:07:02.467Z,2.20
2022-10-04T08:12:14.608Z,2.30
2022-10-04T08:17:28.375Z,1.70
2022-10-04T08:23:01.277Z,1.70
2022-10-04T08:28:14.674Z,2.07
2022-10-04T08:33:26.663Z,1.70
2022-10-04T08:38:42.086Z,1.70
2022-10-04T08:44:20.033Z,1.60
2022-10-04T08:49:46.598Z,1.60
2022-10-04T08:55:20.778Z,1.60
2022-10-04T09:00:31.717Z,1.97
2022-10-04T09:05:57.511Z,2.10
2022-10-04T09:11:19.772Z,2.43
2022-10-04T09:16:33.691Z,2.37
2022-10-04T09:21:50.347Z,2.00
2022-10-04T09:27:00.873Z,2.43
2022-10-04T09:32:36.068Z,2.03
2022-10-04T09:37:59.603Z,1.77
2022-10-04T09:43:41.752Z,1.50
2022-10-04T09:48:55.379Z,1.73
2022-10-04T09:54:20.066Z,2.40
2022-10-04T09:59:48.420Z,2.07
2022-10-04T10:05:08.735Z,1.50
2022-10-04T10:10:22.591Z,1.40
2022-10-04T10:15:33.850Z,1.10
2022-10-04T10:21:10.946Z,1.20
2022-10-04T10:26:33.380Z,0.77
2022-10-04T10:31:53.766Z,1.20
2022-10-04T10:37:07.971Z,0.90
2022-10-04T10:42:27.034Z,1.05
2022-10-04T10:47:44.334Z,1.00
2022-10-04T10:53:22.905Z,1.20
2022-10-04T10:59:05.755Z,0.90
2022-10-04T11:04:31.315Z,1.20
2022-10-04T11:09:53.097Z,0.83
2022-10-04T11:15:33.500Z,0.80
2022-10-04T11:21:00.217Z,0.90
2022-10-04T11:26:40.692Z,0.80
2022-10-04T11:32:15.925Z,0.97
2022-10-04T11:37:29.517Z,0.80
2022-10-04T11:42:51.683Z,1.37
2022-10-04T11:48:02.845Z,1.00
2022-10-04T11:53:28.163Z,1.90
2022-10-04T11:58:45.958Z,1.00
2022-10-04T12:04:27.237Z,1.17
2022-10-04T12:09:42.220Z,0.80
2022-10-04T12:15:01.918Z,0.70
2022-10-04T12:20:38.861Z,0.50
2022-10-04T12:25:54.721Z,0.73
2022-10-04T12:31:10.956Z,0.53
2022-10-04T12:36:28.070Z,1.00
2022-10-04T12:41:47.732Z,0.70
2022-10-04T12:47:01.657Z,0.60
2022-10-04T12:52:11.245Z,0.70
2022-10-04T12:57:40.936Z,1.00
2022-10-04T13:03:11.369Z,1.00
2022-10-04T13:08:25.532Z,3.17
2022-10-04T13:14:04.661Z,0.90
2022-10-04T13:19:16.926Z,0.60
2022-10-04T13:24:28.440Z,0.70
2022-10-04T13:29:37.865Z,0.60
2022-10-04T13:34:52.489Z,0.67
2022-10-04T13:40:25.495Z,0.80
2022-10-04T13:45:37.702Z,1.10
2022-10-04T13:50:58.577Z,0.87
2022-10-04T13:56:06.405Z,0.70
2022-10-04T14:01:41.439Z,0.70
2022-10-04T14:07:22.821Z,1.43
2022-10-04T14:13:09.408Z,0.70
2022-10-04T14:18:32.766Z,0.80
2022-10-04T14:24:19.633Z,0.90
2022-10-04T14:29:43.888Z,0.90
2022-10-04T14:35:00.089Z,0.83
2022-10-04T14:40:21.524Z,0.60
2022-10-04T14:45:38.640Z,0.80
2022-10-04T14:50:56.308Z,0.70
2022-10-04T14:56:16.973Z,0.60
2022-10-04T15:01:21.370Z,0.63
2022-10-04T15:06:35.002Z,1.20
2022-10-04T15:12:02.347Z,1.17
2022-10-04T15:17:10.966Z,0.80
2022-10-04T15:22:22.999Z,1.87
2022-10-04T15:27:49.160Z,0.70
2022-10-04T15:33:06.099Z,1.10
2022-10-04T15:38:23.539Z,1.00
2022-10-04T15:43:29.065Z,1.23
2022-10-04T15:48:49.816Z,1.20
2022-10-04T15:54:33.367Z,0.83
2022-10-04T15:59:46.053Z,1.00
2022-10-04T16:05:03.435Z,0.80
2022-10-04T16:10:19.388Z,0.87
2022-10-04T16:15:32.760Z,0.67
2022-10-04T16:21:04.376Z,0.73
2022-10-04T16:26:10.402Z,0.73
2022-10-04T16:31:41.447Z,0.93
2022-10-04T16:36:51.021Z,1.90
2022-10-04T16:42:00.005Z,3.73
2022-10-04T16:47:12.783Z,2.83
2022-10-04T16:52:37.623Z,2.43
2022-10-04T16:57:41.386Z,1.53
2022-10-04T17:03:12.192Z,1.43
2022-10-04T17:08:46.986Z,1.23
2022-10-04T17:13:56.891Z,1.70
2022-10-04T17:19:32.051Z,1.20
2022-10-04T17:24:46.433Z,1.10
2022-10-04T17:30:02.674Z,1.53
2022-10-04T17:35:16.883Z,1.00
2022-10-04T17:40:33.591Z,1.60
2022-10-04T17:45:52.555Z,1.17
2022-10-04T17:51:02.239Z,1.13
2022-10-04T17:56:06.943Z,1.07
2022-10-04T18:01:13.471Z,1.40
2022-10-04T18:06:25.528Z,1.20
2022-10-04T18:11:35.801Z,1.00
2022-10-04T18:16:50.073Z,1.30
2022-10-04T18:21:52.744Z,1.60
2022-10-04T18:26:58.705Z,1.37
2022-10-04T18:32:15.281Z,1.23
2022-10-04T18:37:21.277Z,1.40
2022-10-04T18:42:28.286Z,1.30
2022-10-04T18:47:36.428Z,1.30
2022-10-04T18:52:51.036Z,1.37
2022-10-04T18:58:02.883Z,1.37
2022-10-04T19:03:15.784Z,1.67
2022-10-04T19:08:31.407Z,1.33
2022-10-04T19:13:43.532Z,1.40
2022-10-04T19:18:58.561Z,1.47
2022-10-04T19:24:28.929Z,1.60
2022-10-04T19:29:44.295Z,1.70
2022-10-04T19:35:01.827Z,1.60
2022-10-04T19:40:09.531Z,1.53
2022-10-04T19:45:25.807Z,1.60
2022-10-04T19:50:36.116Z,1.40
2022-10-04T19:55:47.459Z,1.37
2022-10-04T20:00:50.275Z,1.70
2022-10-04T20:05:55.447Z,1.90
2022-10-04T20:11:14.372Z,2.17
2022-10-04T20:16:53.766Z,2.13
2022-10-04T20:22:27.001Z,1.97
2022-10-04T20:28:00.621Z,2.20
2022-10-04T20:33:02.396Z,2.10
2022-10-04T20:38:32.963Z,2.13
2022-10-04T20:43:53.845Z,2.20
2022-10-04T20:48:56.102Z,2.17
2022-10-04T20:54:00.422Z,2.40
2022-10-04T20:59:04.311Z,2.80
2022-10-04T21:04:13.829Z,2.20
2022-10-04T21:09:16.828Z,2.10
2022-10-04T21:14:23.651Z,2.27
2022-10-04T21:19:44.241Z,2.30
2022-10-04T21:24:55.714Z,1.83
2022-10-04T21:29:58.794Z,2.60
2022-10-04T21:35:00.897Z,2.03
2022-10-04T21:40:06.071Z,2.00
2022-10-04T21:45:08.345Z,2.43
2022-10-04T21:50:10.550Z,2.20
2022-10-04T21:55:14.228Z,1.73
2022-10-04T22:00:15.884Z,2.13
2022-10-04T22:05:18.101Z,2.40
2022-10-04T22:10:21.296Z,2.17
2022-10-04T22:15:25.562Z,1.93
2022-10-04T22:20:27.827Z,2.27
2022-10-04T22:25:31.353Z,2.23
2022-10-04T22:30:34.595Z,2.27
2022-10-04T22:35:36.500Z,2.20
2022-10-04T22:40:40.028Z,2.67
2022-10-04T22:45:43.279Z,2.20
2022-10-04T22:50:45.324Z,1.67
2022-10-04T22:55:49.932Z,2.10
2022-10-04T23:00:51.911Z,2.73
2022-10-04T23:05:54.103Z,2.23
2022-10-04T23:10:58.311Z,2.47
2022-10-04T23:16:07.115Z,2.00
2022-10-04T23:21:19.677Z,1.83
2022-10-04T23:26:25.617Z,2.10
2022-10-04T23:31:27.915Z,2.13
2022-10-04T23:36:30.888Z,2.17
2022-10-04T23:41:34.210Z,2.30
2022-10-04T23:46:36.295Z,1.93
2022-10-04T23:51:38.539Z,2.00
2022-10-04T23:56:43.295Z,2.00
